createdAt,value
2018-02-03T00:00:16.044Z,995.71
2018-02-03T00:01:15.963Z,995.71
2018-02-03T00:02:16.963Z,995.72
2018-02-03T00:03:15.832Z,995.72
2018-02-03T00:04:15.826Z,995.73
2018-02-03T00:05:15.814Z,995.68
2018-02-03T00:06:15.806Z,995.71
2018-02-03T00:07:15.798Z,995.69
2018-02-03T00:08:15.792Z,995.74
2018-02-03T00:09:15.785Z,995.75
2018-02-03T00:10:16.820Z,995.71
2018-02-03T00:11:15.768Z,995.72
2018-02-03T00:12:16.965Z,995.71
2018-02-03T00:13:15.752Z,995.65
2018-02-03T00:14:15.755Z,995.66
2018-02-03T00:15:15.736Z,995.66
2018-02-03T00:16:15.733Z,995.61
2018-02-03T00:17:15.724Z,995.62
2018-02-03T00:18:15.714Z,995.65
2018-02-03T00:19:15.708Z,995.59
2018-02-03T00:20:15.697Z,995.56
2018-02-03T00:21:15.690Z,995.54
2018-02-03T00:22:15.684Z,995.57
2018-02-03T00:23:15.679Z,995.60
2018-02-03T00:24:15.667Z,995.58
2018-02-03T00:25:15.660Z,995.55
2018-02-03T00:26:15.654Z,995.52
2018-02-03T00:27:15.645Z,995.57
2018-02-03T00:28:15.637Z,995.58
2018-02-03T00:29:15.659Z,995.57
2018-02-03T00:30:15.623Z,995.53
2018-02-03T00:31:15.614Z,995.55
2018-02-03T00:32:15.608Z,995.59
2018-02-03T00:33:15.599Z,995.58
2018-02-03T00:34:15.593Z,995.59
2018-02-03T00:35:15.582Z,995.59
2018-02-03T00:36:15.574Z,995.57
2018-02-03T00:37:15.570Z,995.59
2018-02-03T00:38:15.556Z,995.57
2018-02-03T00:39:15.556Z,995.58
2018-02-03T00:40:15.545Z,995.60
2018-02-03T00:41:15.535Z,995.59
2018-02-03T00:42:15.526Z,995.60
2018-02-03T00:43:15.521Z,995.59
2018-02-03T00:44:15.514Z,995.59
2018-02-03T00:45:15.504Z,995.55
2018-02-03T00:46:24.188Z,995.55
2018-02-03T00:48:08.900Z,995.53
2018-02-03T00:49:08.861Z,995.44
2018-02-03T00:50:08.853Z,995.42
2018-02-03T00:51:08.846Z,995.44
2018-02-03T00:52:19.562Z,995.44
2018-02-03T00:54:11.302Z,995.39
2018-02-03T00:56:23.501Z,995.40
2018-02-03T00:57:23.456Z,995.42
2018-02-03T00:59:16.832Z,995.38
2018-02-03T01:00:16.816Z,995.34
2018-02-03T01:01:16.801Z,995.33
2018-02-03T01:02:16.792Z,995.35
2018-02-03T01:03:16.789Z,995.27
2018-02-03T01:04:16.780Z,995.26
2018-02-03T01:05:16.789Z,995.26
2018-02-03T01:06:16.762Z,995.22
2018-02-03T01:07:16.755Z,995.19
2018-02-03T01:08:16.745Z,995.16
2018-02-03T01:09:16.736Z,995.08
2018-02-03T01:11:46.848Z,995.16
2018-02-03T01:12:37.754Z,995.17
2018-02-03T01:14:58.804Z,995.23
2018-02-03T01:15:58.770Z,995.22
2018-02-03T01:16:58.774Z,995.22
2018-02-03T01:17:58.756Z,995.17
2018-02-03T01:18:58.748Z,995.18
2018-02-03T01:19:58.739Z,995.20
2018-02-03T01:20:58.760Z,995.21
2018-02-03T01:21:58.720Z,995.25
2018-02-03T01:22:58.712Z,995.24
2018-02-03T01:23:58.706Z,995.26
2018-02-03T01:24:58.698Z,995.25
2018-02-03T01:25:58.687Z,995.25
2018-02-03T01:26:58.679Z,995.25
2018-02-03T01:27:58.686Z,995.25
2018-02-03T01:28:58.662Z,995.28
2018-02-03T01:29:58.653Z,995.25
2018-02-03T01:30:58.650Z,995.27
2018-02-03T01:31:58.642Z,995.30
2018-02-03T01:32:58.631Z,995.36
2018-02-03T01:33:58.647Z,995.34
2018-02-03T01:34:58.613Z,995.36
2018-02-03T01:35:58.607Z,995.37
2018-02-03T01:36:58.599Z,995.38
2018-02-03T01:37:58.592Z,995.38
2018-02-03T01:38:58.580Z,995.39
2018-02-03T01:39:58.576Z,995.36
2018-02-03T01:40:58.569Z,995.36
2018-02-03T01:41:58.557Z,995.45
2018-02-03T01:42:58.548Z,995.44
2018-02-03T01:43:58.544Z,995.39
2018-02-03T01:44:58.545Z,995.39
2018-02-03T01:45:58.525Z,995.41
2018-02-03T01:46:58.518Z,995.38
2018-02-03T01:47:58.509Z,995.36
2018-02-03T01:48:58.502Z,995.39
2018-02-03T01:49:58.494Z,995.43
2018-02-03T01:50:58.484Z,995.38
2018-02-03T01:51:58.477Z,995.42
2018-02-03T01:52:58.473Z,995.41
2018-02-03T01:53:58.461Z,995.40
2018-02-03T01:54:58.454Z,995.40
2018-02-03T01:55:58.445Z,995.39
2018-02-03T01:56:58.437Z,995.41
2018-02-03T01:57:58.435Z,995.42
2018-02-03T01:58:58.421Z,995.40
2018-02-03T01:59:58.418Z,995.41
2018-02-03T02:00:58.404Z,995.39
2018-02-03T02:01:58.396Z,995.35
2018-02-03T02:02:58.389Z,995.39
2018-02-03T02:03:58.386Z,995.36
2018-02-03T02:04:58.372Z,995.36
2018-02-03T02:05:58.363Z,995.34
2018-02-03T02:06:58.360Z,995.34
2018-02-03T02:07:58.350Z,995.31
2018-02-03T02:08:58.340Z,995.31
2018-02-03T02:09:58.331Z,995.33
2018-02-03T02:10:58.326Z,995.30
2018-02-03T02:11:58.317Z,995.28
2018-02-03T02:12:58.307Z,995.32
2018-02-03T02:13:58.305Z,995.32
2018-02-03T02:14:58.291Z,995.26
2018-02-03T02:15:58.284Z,995.28
2018-02-03T02:16:58.279Z,995.28
2018-02-03T02:17:58.268Z,995.30
2018-02-03T02:18:58.261Z,995.25
2018-02-03T02:19:58.251Z,995.27
2018-02-03T02:20:58.248Z,995.21
2018-02-03T02:21:58.235Z,995.26
2018-02-03T02:22:58.230Z,995.22
2018-02-03T02:23:58.224Z,995.21
2018-02-03T02:24:58.210Z,995.26
2018-02-03T02:25:58.201Z,995.18
2018-02-03T02:26:58.196Z,995.15
2018-02-03T02:27:58.192Z,995.18
2018-02-03T02:28:58.184Z,995.18
2018-02-03T02:29:58.174Z,995.17
2018-02-03T02:30:58.162Z,995.14
2018-02-03T02:31:58.156Z,995.13
2018-02-03T02:32:58.147Z,995.15
2018-02-03T02:33:58.142Z,995.12
2018-02-03T02:34:58.131Z,995.16
2018-02-03T02:35:58.124Z,995.13
2018-02-03T02:36:58.119Z,995.17
2018-02-03T02:37:58.109Z,995.15
2018-02-03T02:38:58.098Z,995.13
2018-02-03T02:39:58.090Z,995.13
2018-02-03T02:40:58.085Z,995.13
2018-02-03T02:41:58.075Z,995.12
2018-02-03T02:42:58.064Z,995.09
2018-02-03T02:43:58.064Z,995.09
2018-02-03T02:44:58.050Z,995.07
2018-02-03T02:45:58.045Z,995.05
2018-02-03T02:46:58.034Z,995.06
2018-02-03T02:47:58.025Z,995.06
2018-02-03T02:48:58.023Z,995.06
2018-02-03T02:49:58.013Z,995.04
2018-02-03T02:50:58.004Z,995.03
2018-02-03T02:51:57.996Z,995.06
2018-02-03T02:52:57.993Z,995.05
2018-02-03T02:53:57.979Z,995.03
2018-02-03T02:54:57.972Z,995.02
2018-02-03T02:55:57.963Z,995.01
2018-02-03T02:56:57.956Z,995.02
2018-02-03T02:57:57.947Z,995.00
2018-02-03T02:58:57.940Z,995.00
2018-02-03T02:59:57.931Z,994.98
2018-02-03T03:00:57.923Z,995.01
2018-02-03T03:01:57.917Z,995.01
2018-02-03T03:02:57.908Z,994.99
2018-02-03T03:03:57.899Z,994.99
2018-02-03T03:23:16.502Z,994.91
2018-02-03T03:24:16.451Z,995.00
2018-02-03T03:25:16.437Z,994.97
2018-02-03T03:26:16.429Z,994.93
2018-02-03T03:27:16.416Z,994.90
2018-02-03T03:28:16.400Z,994.92
2018-02-03T03:29:16.399Z,994.86
2018-02-03T03:30:16.384Z,994.85
2018-02-03T03:31:16.369Z,994.90
2018-02-03T03:32:16.358Z,994.92
2018-02-03T03:33:16.351Z,994.89
2018-02-03T03:34:16.345Z,994.88
2018-02-03T03:35:16.335Z,994.84
2018-02-03T03:36:16.316Z,994.86
2018-02-03T03:37:16.312Z,994.86
2018-02-03T03:38:16.300Z,994.87
2018-02-03T03:39:16.292Z,994.90
2018-02-03T03:40:16.281Z,994.85
2018-02-03T03:41:16.273Z,994.86
2018-02-03T03:42:16.264Z,994.87
2018-02-03T03:43:16.256Z,994.85
2018-02-03T03:44:16.245Z,994.85
2018-02-03T03:45:16.249Z,994.86
2018-02-03T03:46:16.230Z,994.85
2018-02-03T03:47:16.224Z,994.89
2018-02-03T03:48:16.215Z,994.80
2018-02-03T03:49:16.205Z,994.85
2018-02-03T03:50:16.197Z,994.83
2018-02-03T03:51:16.199Z,994.81
2018-02-03T03:52:16.181Z,994.73
2018-02-03T03:53:16.172Z,994.74
2018-02-03T03:54:16.167Z,994.73
2018-02-03T03:55:16.177Z,994.70
2018-02-03T03:56:16.147Z,994.67
2018-02-03T03:57:16.139Z,994.64
2018-02-03T03:58:16.137Z,994.64
2018-02-03T03:59:16.122Z,994.62
2018-02-03T04:00:16.114Z,994.59
2018-02-03T04:01:16.129Z,994.62
2018-02-03T04:02:16.111Z,994.61
2018-02-03T04:03:16.089Z,994.61
2018-02-03T04:04:16.080Z,994.62
2018-02-03T04:05:16.075Z,994.69
2018-02-03T04:06:16.064Z,994.69
2018-02-03T04:07:16.116Z,994.70
2018-02-03T04:08:16.064Z,994.72
2018-02-03T04:09:16.056Z,994.73
2018-02-03T04:10:16.032Z,994.75
2018-02-03T04:11:16.026Z,994.78
2018-02-03T04:12:16.015Z,994.73
2018-02-03T04:13:16.008Z,994.75
2018-02-03T04:14:15.999Z,994.78
2018-02-03T04:15:15.992Z,994.78
2018-02-03T04:16:15.983Z,994.78
2018-02-03T04:17:15.973Z,994.76
2018-02-03T04:18:15.968Z,994.79
2018-02-03T04:19:15.962Z,994.79
2018-02-03T04:20:15.952Z,994.75
2018-02-03T04:21:15.944Z,994.75
2018-02-03T04:22:15.936Z,994.75
2018-02-03T04:23:15.928Z,994.78
2018-02-03T04:24:15.919Z,994.81
2018-02-03T04:25:15.911Z,994.79
2018-02-03T04:26:15.907Z,994.79
2018-02-03T04:27:15.896Z,994.82
2018-02-03T04:28:15.916Z,994.85
2018-02-03T04:29:15.879Z,994.87
2018-02-03T04:30:15.869Z,994.94
2018-02-03T04:31:15.864Z,994.92
2018-02-03T04:32:15.853Z,994.92
2018-02-03T04:33:15.847Z,994.93
2018-02-03T04:34:15.838Z,994.95
2018-02-03T04:35:15.830Z,994.93
2018-02-03T04:36:15.822Z,994.97
2018-02-03T04:37:15.815Z,994.90
2018-02-03T04:38:15.807Z,994.92
2018-02-03T04:39:15.801Z,994.94
2018-02-03T04:40:15.790Z,994.90
2018-02-03T04:41:15.784Z,994.94
2018-02-03T04:42:15.774Z,994.94
2018-02-03T04:43:15.770Z,994.96
2018-02-03T04:44:15.758Z,994.96
2018-02-03T04:45:15.750Z,994.98
2018-02-03T04:46:15.743Z,994.97
2018-02-03T04:47:15.735Z,994.98
2018-02-03T04:48:15.729Z,994.93
2018-02-03T04:49:15.719Z,994.96
2018-02-03T04:50:15.718Z,994.95
2018-02-03T04:51:15.706Z,994.93
2018-02-03T04:52:15.694Z,994.95
2018-02-03T04:53:15.687Z,994.96
2018-02-03T04:54:15.678Z,994.97
2018-02-03T04:55:15.673Z,995.00
2018-02-03T04:56:15.663Z,995.02
2018-02-03T04:57:15.659Z,995.01
2018-02-03T04:58:15.648Z,995.04
2018-02-03T04:59:15.640Z,995.04
2018-02-03T05:00:15.674Z,995.07
2018-02-03T05:01:15.623Z,995.05
2018-02-03T05:02:15.621Z,995.06
2018-02-03T05:03:15.606Z,995.07
2018-02-03T05:04:15.685Z,995.06
2018-02-03T05:05:15.592Z,995.09
2018-02-03T05:06:15.582Z,995.01
2018-02-03T05:07:15.580Z,995.00
2018-02-03T05:08:15.569Z,995.06
2018-02-03T05:09:15.564Z,995.06
2018-02-03T05:10:15.553Z,995.05
2018-02-03T05:11:15.586Z,995.10
2018-02-03T05:12:15.536Z,995.04
2018-02-03T05:13:15.529Z,995.07
2018-02-03T05:14:15.524Z,995.05
2018-02-03T05:15:15.513Z,995.09
2018-02-03T05:16:15.503Z,995.04
2018-02-03T05:17:15.496Z,995.09
2018-02-03T05:18:15.492Z,995.11
2018-02-03T05:19:15.479Z,995.09
2018-02-03T05:20:15.470Z,995.02
2018-02-03T05:21:15.462Z,995.09
2018-02-03T05:22:15.462Z,995.05
2018-02-03T05:23:15.453Z,995.06
2018-02-03T05:24:15.441Z,995.00
2018-02-03T05:25:15.493Z,995.01
2018-02-03T05:26:15.426Z,994.99
2018-02-03T05:27:15.417Z,995.07
2018-02-03T05:28:15.413Z,995.02
2018-02-03T05:29:15.406Z,995.05
2018-02-03T05:30:15.393Z,994.98
2018-02-03T05:31:15.383Z,995.03
2018-02-03T05:32:15.375Z,995.00
2018-02-03T05:33:15.368Z,994.97
2018-02-03T05:34:15.358Z,994.96
2018-02-03T05:35:15.352Z,994.91
2018-02-03T05:36:15.343Z,994.92
2018-02-03T05:37:15.386Z,994.94
2018-02-03T05:38:15.328Z,994.92
2018-02-03T05:39:15.322Z,994.92
2018-02-03T05:40:15.311Z,994.91
2018-02-03T05:41:15.301Z,994.92
2018-02-03T05:42:15.299Z,994.86
2018-02-03T05:43:15.290Z,994.89
2018-02-03T05:44:15.277Z,994.87
2018-02-03T05:45:15.269Z,994.87
2018-02-03T05:46:15.262Z,994.86
2018-02-03T05:47:15.253Z,994.85
2018-02-03T05:48:15.245Z,994.84
2018-02-03T05:49:15.238Z,994.87
2018-02-03T05:50:15.230Z,994.83
2018-02-03T05:51:15.223Z,994.86
2018-02-03T05:52:15.212Z,994.87
2018-02-03T05:53:15.206Z,994.89
2018-02-03T05:54:15.198Z,994.89
2018-02-03T05:55:15.195Z,994.84
2018-02-03T05:56:15.204Z,994.89
2018-02-03T05:57:15.171Z,994.85
2018-02-03T05:58:15.164Z,994.89
2018-02-03T05:59:15.157Z,994.97
2018-02-03T06:00:15.149Z,994.96
2018-02-03T06:01:15.140Z,994.98
2018-02-03T06:02:15.131Z,994.98
2018-02-03T06:03:15.181Z,994.98
2018-02-03T06:04:15.120Z,994.98
2018-02-03T06:05:15.108Z,994.97
2018-02-03T06:06:15.100Z,995.03
2018-02-03T06:07:15.093Z,995.02
2018-02-03T06:08:15.086Z,995.03
2018-02-03T06:09:15.080Z,995.05
2018-02-03T06:10:15.070Z,995.03
2018-02-03T06:11:15.062Z,995.03
2018-02-03T06:12:15.052Z,995.04
2018-02-03T06:13:15.043Z,994.98
2018-02-03T06:14:15.034Z,995.03
2018-02-03T06:15:15.028Z,995.01
2018-02-03T06:16:15.026Z,995.02
2018-02-03T06:17:15.012Z,995.02
2018-02-03T06:18:15.004Z,995.02
2018-02-03T06:19:14.997Z,995.05
2018-02-03T06:20:14.986Z,995.05
2018-02-03T06:21:14.980Z,995.06
2018-02-03T06:22:14.970Z,995.05
2018-02-03T06:23:23.642Z,995.08
2018-02-03T06:25:17.438Z,995.01
2018-02-03T06:27:29.402Z,994.98
2018-02-03T06:28:38.000Z,994.96
2018-02-03T06:30:22.720Z,994.99
2018-02-03T06:31:22.709Z,994.98
2018-02-03T06:32:22.695Z,995.01
2018-02-03T06:33:22.688Z,995.04
2018-02-03T06:34:31.321Z,994.99
2018-02-03T06:36:25.186Z,995.00
2018-02-03T06:38:46.210Z,995.04
2018-02-03T06:39:37.113Z,995.01
2018-02-03T06:40:45.752Z,995.02
2018-02-03T06:42:31.512Z,995.00
2018-02-03T06:43:31.454Z,995.03
2018-02-03T06:45:24.858Z,995.04
2018-02-03T06:46:24.849Z,995.06
2018-02-03T06:47:33.516Z,995.08
2018-02-03T06:49:17.769Z,995.07
2018-02-03T06:50:17.697Z,995.10
2018-02-03T06:52:11.074Z,995.12
2018-02-03T06:53:11.060Z,995.14
2018-02-03T06:54:11.058Z,995.12
2018-02-03T06:55:11.044Z,995.15
2018-02-03T06:56:11.038Z,995.18
2018-02-03T06:57:11.027Z,995.17
2018-02-03T06:58:11.019Z,995.25
2018-02-03T06:59:11.011Z,995.19
2018-02-03T07:00:11.000Z,995.19
2018-02-03T07:01:10.996Z,995.25
2018-02-03T07:02:10.988Z,995.20
2018-02-03T07:03:11.001Z,995.23
2018-02-03T07:04:10.975Z,995.23
2018-02-03T07:05:10.958Z,995.26
2018-02-03T07:06:10.950Z,995.26
2018-02-03T07:07:10.941Z,995.24
2018-02-03T07:08:10.977Z,995.25
2018-02-03T07:09:10.931Z,995.26
2018-02-03T07:10:10.921Z,995.26
2018-02-03T07:11:10.909Z,995.27
2018-02-03T07:12:10.902Z,995.22
2018-02-03T07:13:10.892Z,995.23
2018-02-03T07:14:10.892Z,995.24
2018-02-03T07:15:10.917Z,995.23
2018-02-03T07:16:10.867Z,995.20
2018-02-03T07:17:10.891Z,995.26
2018-02-03T07:18:10.849Z,995.23
2018-02-03T07:19:10.840Z,995.24
2018-02-03T07:20:10.832Z,995.21
2018-02-03T07:21:10.826Z,995.22
2018-02-03T07:22:10.816Z,995.26
2018-02-03T07:23:10.806Z,995.21
2018-02-03T07:24:10.798Z,995.25
2018-02-03T07:25:10.789Z,995.24
2018-02-03T07:26:10.786Z,995.22
2018-02-03T07:27:10.777Z,995.22
2018-02-03T07:28:10.762Z,995.26
2018-02-03T07:29:10.757Z,995.23
2018-02-03T07:30:10.748Z,995.22
2018-02-03T07:31:10.736Z,995.20
2018-02-03T07:32:10.746Z,995.24
2018-02-03T07:33:10.723Z,995.27
2018-02-03T07:34:10.714Z,995.24
2018-02-03T07:35:10.702Z,995.29
2018-02-03T07:36:10.693Z,995.28
2018-02-03T07:37:10.689Z,995.29
2018-02-03T07:38:10.679Z,995.29
2018-02-03T07:39:10.671Z,995.26
2018-02-03T07:40:10.673Z,995.29
2018-02-03T07:41:10.661Z,995.29
2018-02-03T07:42:10.647Z,995.23
2018-02-03T07:43:10.642Z,995.25
2018-02-03T07:44:10.631Z,995.25
2018-02-03T07:45:10.618Z,995.18
2018-02-03T07:46:10.611Z,995.15
2018-02-03T07:47:10.601Z,995.19
2018-02-03T07:48:10.603Z,995.15
2018-02-03T07:49:10.600Z,995.16
2018-02-03T07:50:10.578Z,995.17
2018-02-03T07:51:10.570Z,995.16
2018-02-03T07:52:10.561Z,995.19
2018-02-03T07:53:10.556Z,995.19
2018-02-03T07:54:10.544Z,995.23
2018-02-03T07:55:19.661Z,995.15
2018-02-03T07:57:03.958Z,995.19
2018-02-03T07:58:03.917Z,995.19
2018-02-03T07:59:03.930Z,995.26
2018-02-03T08:00:03.955Z,995.29
2018-02-03T08:01:03.894Z,995.28
2018-02-03T08:02:03.885Z,995.27
2018-02-03T08:03:03.873Z,995.28
2018-02-03T08:04:03.867Z,995.28
2018-02-03T08:05:03.863Z,995.34
2018-02-03T08:06:03.851Z,995.29
2018-02-03T08:07:03.840Z,995.29
2018-02-03T08:08:03.833Z,995.21
2018-02-03T08:09:03.823Z,995.25
2018-02-03T08:10:03.816Z,995.25
2018-02-03T08:11:03.810Z,995.26
2018-02-03T08:12:03.805Z,995.22
2018-02-03T08:13:03.796Z,995.28
2018-02-03T08:14:03.780Z,995.23
2018-02-03T08:15:03.772Z,995.21
2018-02-03T08:16:03.762Z,995.24
2018-02-03T08:17:03.759Z,995.26
2018-02-03T08:18:03.746Z,995.22
2018-02-03T08:19:03.743Z,995.28
2018-02-03T08:20:03.736Z,995.26
2018-02-03T08:21:03.721Z,995.28
2018-02-03T08:22:03.711Z,995.25
2018-02-03T08:23:03.718Z,995.27
2018-02-03T08:24:03.693Z,995.20
2018-02-03T08:25:03.686Z,995.23
2018-02-03T08:26:03.680Z,995.21
2018-02-03T08:27:03.667Z,995.26
2018-02-03T08:28:03.661Z,995.24
2018-02-03T08:29:03.653Z,995.19
2018-02-03T08:30:03.644Z,995.20
2018-02-03T08:31:03.635Z,995.21
2018-02-03T08:32:03.626Z,995.16
2018-02-03T08:33:03.619Z,995.20
2018-02-03T08:34:03.614Z,995.17
2018-02-03T08:35:03.617Z,995.20
2018-02-03T08:36:03.592Z,995.17
2018-02-03T08:37:03.582Z,995.20
2018-02-03T08:38:03.573Z,995.21
2018-02-03T08:39:03.571Z,995.22
2018-02-03T08:40:03.560Z,995.20
2018-02-03T08:41:03.550Z,995.24
2018-02-03T08:42:03.545Z,995.25
2018-02-03T08:43:03.536Z,995.20
2018-02-03T08:44:03.525Z,995.13
2018-02-03T08:45:03.516Z,995.17
2018-02-03T08:46:03.504Z,995.18
2018-02-03T08:47:03.500Z,995.16
2018-02-03T08:48:03.497Z,995.15
2018-02-03T08:49:03.481Z,995.15
2018-02-03T08:50:03.480Z,995.15
2018-02-03T08:51:03.462Z,995.16
2018-02-03T08:52:03.454Z,995.17
2018-02-03T08:53:03.448Z,995.15
2018-02-03T08:54:03.437Z,995.12
2018-02-03T08:55:03.433Z,995.14
2018-02-03T08:56:03.424Z,995.15
2018-02-03T08:57:03.418Z,995.14
2018-02-03T08:58:03.404Z,995.12
2018-02-03T08:59:03.400Z,995.16
2018-02-03T09:00:03.389Z,995.11
2018-02-03T09:01:03.384Z,995.13
2018-02-03T09:02:03.371Z,995.13
2018-02-03T09:03:03.363Z,995.14
2018-02-03T09:04:03.353Z,995.12
2018-02-03T09:05:03.390Z,995.14
2018-02-03T09:06:03.338Z,995.13
2018-02-03T09:07:03.330Z,995.05
2018-02-03T09:08:03.323Z,995.08
2018-02-03T09:09:03.315Z,995.14
2018-02-03T09:10:03.306Z,995.17
2018-02-03T09:11:03.298Z,995.11
2018-02-03T09:12:03.290Z,995.10
2018-02-03T09:13:03.279Z,995.08
2018-02-03T09:14:03.275Z,995.11
2018-02-03T09:15:03.262Z,995.07
2018-02-03T09:16:03.258Z,995.05
2018-02-03T09:17:03.297Z,995.05
2018-02-03T09:18:03.242Z,995.05
2018-02-03T09:19:03.233Z,995.07
2018-02-03T09:20:03.224Z,995.08
2018-02-03T09:21:03.251Z,995.00
2018-02-03T09:22:03.205Z,995.06
2018-02-03T09:23:03.198Z,995.04
2018-02-03T09:24:03.191Z,995.03
2018-02-03T09:25:03.182Z,995.03
2018-02-03T09:26:03.174Z,995.01
2018-02-03T09:27:03.165Z,995.05
2018-02-03T09:28:03.165Z,995.02
2018-02-03T09:29:03.147Z,995.02
2018-02-03T09:30:03.140Z,995.02
2018-02-03T09:31:03.130Z,995.02
2018-02-03T09:32:03.124Z,994.98
2018-02-03T09:33:03.118Z,994.96
2018-02-03T09:34:03.115Z,994.94
2018-02-03T09:35:03.101Z,994.93
2018-02-03T09:36:03.093Z,994.94
2018-02-03T09:37:03.083Z,994.91
2018-02-03T09:38:03.074Z,995.00
2018-02-03T09:39:03.070Z,994.95
2018-02-03T09:40:03.059Z,994.96
2018-02-03T09:41:03.050Z,994.94
2018-02-03T09:42:03.050Z,994.98
2018-02-03T09:43:03.034Z,995.02
2018-02-03T09:44:03.025Z,995.02
2018-02-03T09:45:03.019Z,995.02
2018-02-03T09:46:03.027Z,995.04
2018-02-03T09:47:03.005Z,995.05
2018-02-03T09:48:02.994Z,995.05
2018-02-03T09:49:02.990Z,995.09
2018-02-03T09:50:02.975Z,995.10
2018-02-03T09:51:02.970Z,995.08
2018-02-03T09:52:02.961Z,995.10
2018-02-03T09:53:02.952Z,995.16
2018-02-03T09:54:11.681Z,995.14
2018-02-03T09:55:56.440Z,995.19
2018-02-03T09:56:56.360Z,995.17
2018-02-03T09:57:56.352Z,995.14
2018-02-03T09:58:56.341Z,995.21
2018-02-03T09:59:56.376Z,995.16
2018-02-03T10:00:56.376Z,995.18
2018-02-03T10:01:56.323Z,995.20
2018-02-03T10:02:56.309Z,995.16
2018-02-03T10:03:56.302Z,995.18
2018-02-03T10:04:56.292Z,995.24
2018-02-03T10:05:56.286Z,995.22
2018-02-03T10:06:56.276Z,995.21
2018-02-03T10:07:56.269Z,995.20
2018-02-03T10:08:56.261Z,995.21
2018-02-03T10:09:56.256Z,995.20
2018-02-03T10:10:56.245Z,995.20
2018-02-03T10:11:56.238Z,995.18
2018-02-03T10:12:56.230Z,995.21
2018-02-03T10:13:56.222Z,995.19
2018-02-03T10:14:56.211Z,995.21
2018-02-03T10:15:56.211Z,995.18
2018-02-03T10:16:56.206Z,995.16
2018-02-03T10:17:56.187Z,995.17
2018-02-03T10:18:56.182Z,995.17
2018-02-03T10:19:56.172Z,995.14
2018-02-03T10:20:56.163Z,995.17
2018-02-03T10:21:56.206Z,995.14
2018-02-03T10:22:56.152Z,995.14
2018-02-03T10:23:56.142Z,995.08
2018-02-03T10:24:56.131Z,995.08
2018-02-03T10:25:56.123Z,995.13
2018-02-03T10:26:56.121Z,995.06
2018-02-03T10:27:56.108Z,995.10
2018-02-03T10:28:56.101Z,995.09
2018-02-03T10:29:56.092Z,995.11
2018-02-03T10:30:56.083Z,995.05
2018-02-03T10:31:56.079Z,995.08
2018-02-03T10:32:56.065Z,995.09
2018-02-03T10:33:56.061Z,995.09
2018-02-03T10:34:56.051Z,995.11
2018-02-03T10:35:56.047Z,995.08
2018-02-03T10:36:56.037Z,995.08
2018-02-03T10:37:56.028Z,995.07
2018-02-03T10:38:56.019Z,995.06
2018-02-03T10:39:56.011Z,995.07
2018-02-03T10:40:56.004Z,995.06
2018-02-03T10:41:55.994Z,995.04
2018-02-03T10:42:55.987Z,995.07
2018-02-03T10:43:55.977Z,995.05
2018-02-03T10:44:55.971Z,995.07
2018-02-03T10:45:55.961Z,995.03
2018-02-03T10:46:55.954Z,995.06
2018-02-03T10:47:55.948Z,995.09
2018-02-03T10:48:55.937Z,995.03
2018-02-03T10:49:55.931Z,995.05
2018-02-03T10:50:55.941Z,995.06
2018-02-03T10:51:55.916Z,995.08
2018-02-03T10:52:55.906Z,995.05
2018-02-03T10:53:55.904Z,995.02
2018-02-03T10:54:55.894Z,995.05
2018-02-03T10:55:55.881Z,995.05
2018-02-03T10:56:55.874Z,995.05
2018-02-03T10:57:55.868Z,995.07
2018-02-03T10:58:55.857Z,995.05
2018-02-03T10:59:55.851Z,995.08
2018-02-03T11:00:55.847Z,995.02
2018-02-03T11:01:55.835Z,995.03
2018-02-03T11:02:55.828Z,995.05
2018-02-03T11:03:55.819Z,995.03
2018-02-03T11:04:55.811Z,995.01
2018-02-03T11:05:55.804Z,995.00
2018-02-03T11:06:55.799Z,994.95
2018-02-03T11:07:55.789Z,994.94
2018-02-03T11:08:55.780Z,994.95
2018-02-03T11:09:55.772Z,994.92
2018-02-03T11:10:55.762Z,994.98
2018-02-03T11:11:55.755Z,994.95
2018-02-03T11:12:55.755Z,994.93
2018-02-03T11:13:55.740Z,994.92
2018-02-03T11:14:55.732Z,994.89
2018-02-03T11:15:55.729Z,994.91
2018-02-03T11:16:55.717Z,994.88
2018-02-03T11:17:55.707Z,994.85
2018-02-03T11:18:55.703Z,994.87
2018-02-03T11:19:55.697Z,994.88
2018-02-03T11:20:55.684Z,994.84
2018-02-03T11:21:55.679Z,994.85
2018-02-03T11:22:55.674Z,994.83
2018-02-03T11:23:55.662Z,994.85
2018-02-03T11:24:55.652Z,994.83
2018-02-03T11:25:55.646Z,994.83
2018-02-03T11:26:55.642Z,994.85
2018-02-03T11:27:55.629Z,994.85
2018-02-03T11:28:55.622Z,994.85
2018-02-03T11:29:55.620Z,994.88
2018-02-03T11:30:55.606Z,994.87
2018-02-03T11:31:55.620Z,994.85
2018-02-03T11:32:55.588Z,994.91
2018-02-03T11:33:55.583Z,994.90
2018-02-03T11:34:55.576Z,994.87
2018-02-03T11:36:03.732Z,994.90
2018-02-03T11:37:48.956Z,994.90
2018-02-03T11:38:57.625Z,994.83
2018-02-03T11:40:51.437Z,994.85
2018-02-03T11:41:42.304Z,994.83
2018-02-03T11:42:42.292Z,994.82
2018-02-03T11:43:42.287Z,994.78
2018-02-03T11:44:42.281Z,994.83
2018-02-03T11:47:11.919Z,994.78
2018-02-03T11:49:33.930Z,994.77
2018-02-03T11:50:32.518Z,994.79
2018-02-03T11:52:25.818Z,994.76
2018-02-03T11:53:16.710Z,994.74
2018-02-03T11:54:16.708Z,994.72
2018-02-03T11:55:16.713Z,994.69
2018-02-03T11:56:16.685Z,994.67
2018-02-03T11:57:16.689Z,994.71
2018-02-03T11:58:16.676Z,994.67
2018-02-03T11:59:16.660Z,994.65
2018-02-03T12:00:16.654Z,994.66
2018-02-03T12:01:16.650Z,994.65
2018-02-03T12:02:16.654Z,994.63
2018-02-03T12:03:16.630Z,994.65
2018-02-03T12:04:16.622Z,994.69
2018-02-03T12:05:16.625Z,994.66
2018-02-03T12:06:16.649Z,994.61
2018-02-03T12:07:16.595Z,994.62
2018-02-03T12:08:16.587Z,994.64
2018-02-03T12:09:16.670Z,994.61
2018-02-03T12:10:16.643Z,994.63
2018-02-03T12:11:16.566Z,994.58
2018-02-03T12:12:16.556Z,994.62
2018-02-03T12:13:16.551Z,994.60
2018-02-03T12:14:16.543Z,994.58
2018-02-03T12:15:16.534Z,994.57
2018-02-03T12:16:16.526Z,994.56
2018-02-03T12:17:23.725Z,994.53
2018-02-03T12:19:09.999Z,994.51
2018-02-03T12:20:09.890Z,994.51
2018-02-03T12:21:09.880Z,994.50
2018-02-03T12:22:09.892Z,994.48
2018-02-03T12:23:09.894Z,994.46
2018-02-03T12:24:09.866Z,994.48
2018-02-03T12:25:09.847Z,994.44
2018-02-03T12:26:09.845Z,994.45
2018-02-03T12:27:09.832Z,994.45
2018-02-03T12:28:09.860Z,994.47
2018-02-03T12:29:09.865Z,994.45
2018-02-03T12:30:09.808Z,994.45
2018-02-03T12:31:09.825Z,994.44
2018-02-03T12:32:09.796Z,994.40
2018-02-03T12:33:09.787Z,994.42
2018-02-03T12:34:09.780Z,994.37
2018-02-03T12:35:09.774Z,994.40
2018-02-03T12:36:09.763Z,994.38
2018-02-03T12:37:09.755Z,994.34
2018-02-03T12:38:09.749Z,994.36
2018-02-03T12:39:09.747Z,994.33
2018-02-03T12:40:09.738Z,994.29
2018-02-03T12:41:09.741Z,994.26
2018-02-03T12:42:09.718Z,994.29
2018-02-03T12:43:09.710Z,994.27
2018-02-03T12:44:09.701Z,994.21
2018-02-03T12:45:09.703Z,994.22
2018-02-03T12:46:16.859Z,994.25
2018-02-03T12:48:03.164Z,994.18
2018-02-03T12:49:03.070Z,994.14
2018-02-03T12:50:03.062Z,994.17
2018-02-03T12:51:03.058Z,994.15
2018-02-03T12:52:03.055Z,994.14
2018-02-03T12:53:10.255Z,994.16
2018-02-03T12:54:57.446Z,994.15
2018-02-03T12:55:57.450Z,994.15
2018-02-03T12:56:57.412Z,994.15
2018-02-03T12:57:57.395Z,994.12
2018-02-03T12:58:57.448Z,994.13
2018-02-03T12:59:57.529Z,994.12
2018-02-03T13:00:57.369Z,994.10
2018-02-03T13:01:57.370Z,994.11
2018-02-03T13:02:57.361Z,994.12
2018-02-03T13:03:57.355Z,994.06
2018-02-03T13:04:57.347Z,994.09
2018-02-03T13:05:57.334Z,994.05
2018-02-03T13:06:57.328Z,994.05
2018-02-03T13:07:57.329Z,994.02
2018-02-03T13:08:57.311Z,994.05
2018-02-03T13:09:57.313Z,994.02
2018-02-03T13:10:57.295Z,994.03
2018-02-03T13:11:57.290Z,994.01